sensor_id;sensor_type;location;lat;lon;timestamp;P1;durP1;ratioP1;P2;durP2;ratioP2
23230;SDS011;11784;49.818;8.632;2023-07-08T00:01:55;5.03;;;2.30;;
23230;SDS011;11784;49.818;8.632;2023-07-08T00:04:21;3.75;;;2.03;;
23230;SDS011;11784;49.818;8.632;2023-07-08T00:06:47;5.45;;;2.28;;
23230;SDS011;11784;49.818;8.632;2023-07-08T00:09:14;4.93;;;2.03;;
23230;SDS011;11784;49.818;8.632;2023-07-08T00:11:40;5.25;;;2.08;;
23230;SDS011;11784;49.818;8.632;2023-07-08T00:14:06;5.75;;;2.13;;
23230;SDS011;11784;49.818;8.632;2023-07-08T00:16:31;4.88;;;2.20;;
23230;SDS011;11784;49.818;8.632;2023-07-08T00:18:56;6.78;;;2.83;;
23230;SDS011;11784;49.818;8.632;2023-07-08T00:21:22;5.18;;;2.28;;
23230;SDS011;11784;49.818;8.632;2023-07-08T00:23:48;5.72;;;2.42;;
23230;SDS011;11784;49.818;8.632;2023-07-08T00:26:28;5.80;;;2.33;;
23230;SDS011;11784;49.818;8.632;2023-07-08T00:28:55;6.72;;;2.63;;
23230;SDS011;11784;49.818;8.632;2023-07-08T00:31:22;5.97;;;2.40;;
23230;SDS011;11784;49.818;8.632;2023-07-08T00:33:51;7.00;;;2.60;;
23230;SDS011;11784;49.818;8.632;2023-07-08T00:36:20;5.78;;;1.98;;
23230;SDS011;11784;49.818;8.632;2023-07-08T00:38:47;5.38;;;2.17;;
23230;SDS011;11784;49.818;8.632;2023-07-08T00:41:32;3.92;;;2.13;;
23230;SDS011;11784;49.818;8.632;2023-07-08T00:44:00;4.50;;;2.20;;
23230;SDS011;11784;49.818;8.632;2023-07-08T00:51:32;7.28;;;2.45;;
23230;SDS011;11784;49.818;8.632;2023-07-08T00:54:05;5.35;;;2.28;;
23230;SDS011;11784;49.818;8.632;2023-07-08T00:56:40;6.50;;;2.80;;
23230;SDS011;11784;49.818;8.632;2023-07-08T00:59:21;4.60;;;2.00;;
23230;SDS011;11784;49.818;8.632;2023-07-08T01:01:52;5.95;;;2.67;;
23230;SDS011;11784;49.818;8.632;2023-07-08T01:04:23;4.68;;;2.40;;
23230;SDS011;11784;49.818;8.632;2023-07-08T01:06:55;8.20;;;2.92;;
23230;SDS011;11784;49.818;8.632;2023-07-08T01:09:27;6.03;;;2.53;;
23230;SDS011;11784;49.818;8.632;2023-07-08T01:11:58;4.85;;;2.13;;
23230;SDS011;11784;49.818;8.632;2023-07-08T01:14:27;3.33;;;1.98;;
23230;SDS011;11784;49.818;8.632;2023-07-08T01:16:57;6.03;;;2.30;;
23230;SDS011;11784;49.818;8.632;2023-07-08T01:19:25;4.72;;;2.00;;
23230;SDS011;11784;49.818;8.632;2023-07-08T01:24:24;5.43;;;2.42;;
23230;SDS011;11784;49.818;8.632;2023-07-08T01:26:50;7.18;;;2.10;;
23230;SDS011;11784;49.818;8.632;2023-07-08T01:29:16;4.20;;;1.67;;
23230;SDS011;11784;49.818;8.632;2023-07-08T01:31:42;7.13;;;2.30;;
23230;SDS011;11784;49.818;8.632;2023-07-08T01:34:13;5.53;;;2.60;;
23230;SDS011;11784;49.818;8.632;2023-07-08T01:36:40;5.78;;;2.35;;
23230;SDS011;11784;49.818;8.632;2023-07-08T01:39:16;4.95;;;2.53;;
23230;SDS011;11784;49.818;8.632;2023-07-08T01:41:44;7.47;;;2.60;;
23230;SDS011;11784;49.818;8.632;2023-07-08T01:44:29;6.75;;;2.30;;
23230;SDS011;11784;49.818;8.632;2023-07-08T01:46:58;8.65;;;2.80;;
23230;SDS011;11784;49.818;8.632;2023-07-08T01:49:27;5.03;;;2.53;;
23230;SDS011;11784;49.818;8.632;2023-07-08T01:51:53;6.90;;;2.83;;
23230;SDS011;11784;49.818;8.632;2023-07-08T01:54:20;6.60;;;3.28;;
23230;SDS011;11784;49.818;8.632;2023-07-08T01:56:46;5.90;;;2.22;;
23230;SDS011;11784;49.818;8.632;2023-07-08T01:59:11;6.50;;;3.00;;
23230;SDS011;11784;49.818;8.632;2023-07-08T02:01:37;6.18;;;2.30;;
23230;SDS011;11784;49.818;8.632;2023-07-08T02:04:02;6.35;;;2.65;;
23230;SDS011;11784;49.818;8.632;2023-07-08T02:06:28;6.50;;;1.90;;
23230;SDS011;11784;49.818;8.632;2023-07-08T02:08:53;6.43;;;2.75;;
23230;SDS011;11784;49.818;8.632;2023-07-08T02:11:20;5.20;;;2.40;;
23230;SDS011;11784;49.818;8.632;2023-07-08T02:13:45;5.47;;;2.63;;
23230;SDS011;11784;49.818;8.632;2023-07-08T02:16:11;4.35;;;2.13;;
23230;SDS011;11784;49.818;8.632;2023-07-08T02:18:36;7.40;;;1.83;;
23230;SDS011;11784;49.818;8.632;2023-07-08T02:21:02;5.70;;;2.17;;
23230;SDS011;11784;49.818;8.632;2023-07-08T02:23:27;7.50;;;2.20;;
23230;SDS011;11784;49.818;8.632;2023-07-08T02:25:53;6.70;;;2.67;;
23230;SDS011;11784;49.818;8.632;2023-07-08T02:28:20;7.07;;;2.65;;
23230;SDS011;11784;49.818;8.632;2023-07-08T02:30:46;5.68;;;2.63;;
23230;SDS011;11784;49.818;8.632;2023-07-08T02:33:12;11.13;;;2.83;;
23230;SDS011;11784;49.818;8.632;2023-07-08T02:35:39;5.18;;;2.42;;
23230;SDS011;11784;49.818;8.632;2023-07-08T02:38:05;4.43;;;1.98;;
23230;SDS011;11784;49.818;8.632;2023-07-08T02:40:30;4.75;;;2.10;;
23230;SDS011;11784;49.818;8.632;2023-07-08T02:42:56;4.57;;;2.33;;
23230;SDS011;11784;49.818;8.632;2023-07-08T02:45:21;5.07;;;2.10;;
23230;SDS011;11784;49.818;8.632;2023-07-08T02:47:47;4.43;;;2.08;;
23230;SDS011;11784;49.818;8.632;2023-07-08T02:50:13;16.73;;;2.40;;
23230;SDS011;11784;49.818;8.632;2023-07-08T02:52:38;6.38;;;2.30;;
23230;SDS011;11784;49.818;8.632;2023-07-08T02:55:04;4.60;;;2.40;;
23230;SDS011;11784;49.818;8.632;2023-07-08T02:57:30;5.45;;;1.95;;
23230;SDS011;11784;49.818;8.632;2023-07-08T02:59:56;4.82;;;2.25;;
23230;SDS011;11784;49.818;8.632;2023-07-08T03:02:21;6.05;;;2.42;;
23230;SDS011;11784;49.818;8.632;2023-07-08T03:04:47;4.88;;;2.33;;
23230;SDS011;11784;49.818;8.632;2023-07-08T03:07:15;6.95;;;2.38;;
23230;SDS011;11784;49.818;8.632;2023-07-08T03:09:41;6.25;;;2.47;;
23230;SDS011;11784;49.818;8.632;2023-07-08T03:12:07;4.57;;;2.30;;
23230;SDS011;11784;49.818;8.632;2023-07-08T03:14:33;4.70;;;2.10;;
23230;SDS011;11784;49.818;8.632;2023-07-08T03:16:59;7.70;;;2.95;;
23230;SDS011;11784;49.818;8.632;2023-07-08T03:19:25;6.25;;;2.28;;
23230;SDS011;11784;49.818;8.632;2023-07-08T03:21:50;8.15;;;2.00;;
23230;SDS011;11784;49.818;8.632;2023-07-08T03:24:17;6.10;;;2.67;;
23230;SDS011;11784;49.818;8.632;2023-07-08T03:26:43;5.78;;;2.55;;
23230;SDS011;11784;49.818;8.632;2023-07-08T03:29:11;4.57;;;1.98;;
23230;SDS011;11784;49.818;8.632;2023-07-08T03:31:42;7.43;;;2.53;;
23230;SDS011;11784;49.818;8.632;2023-07-08T03:34:12;6.57;;;2.40;;
23230;SDS011;11784;49.818;8.632;2023-07-08T03:36:44;6.45;;;2.47;;
23230;SDS011;11784;49.818;8.632;2023-07-08T03:39:14;5.45;;;2.70;;
23230;SDS011;11784;49.818;8.632;2023-07-08T03:41:41;8.02;;;2.75;;
23230;SDS011;11784;49.818;8.632;2023-07-08T03:44:06;7.78;;;3.40;;
23230;SDS011;11784;49.818;8.632;2023-07-08T03:46:32;4.60;;;2.03;;
23230;SDS011;11784;49.818;8.632;2023-07-08T03:48:58;5.55;;;2.17;;
23230;SDS011;11784;49.818;8.632;2023-07-08T03:51:24;6.20;;;2.20;;
23230;SDS011;11784;49.818;8.632;2023-07-08T03:53:55;6.05;;;2.58;;
23230;SDS011;11784;49.818;8.632;2023-07-08T03:56:20;5.40;;;2.40;;
23230;SDS011;11784;49.818;8.632;2023-07-08T03:58:46;4.65;;;1.95;;
23230;SDS011;11784;49.818;8.632;2023-07-08T04:01:16;5.40;;;2.40;;
23230;SDS011;11784;49.818;8.632;2023-07-08T04:03:42;4.43;;;2.45;;
23230;SDS011;11784;49.818;8.632;2023-07-08T04:06:10;4.57;;;2.10;;
23230;SDS011;11784;49.818;8.632;2023-07-08T04:08:35;4.40;;;2.22;;
23230;SDS011;11784;49.818;8.632;2023-07-08T04:11:01;4.05;;;2.00;;
23230;SDS011;11784;49.818;8.632;2023-07-08T04:13:26;7.72;;;2.53;;
23230;SDS011;11784;49.818;8.632;2023-07-08T04:15:53;4.03;;;2.22;;
23230;SDS011;11784;49.818;8.632;2023-07-08T04:18:23;5.85;;;2.05;;
23230;SDS011;11784;49.818;8.632;2023-07-08T04:20:48;7.65;;;2.65;;
23230;SDS011;11784;49.818;8.632;2023-07-08T04:23:17;4.35;;;2.22;;
23230;SDS011;11784;49.818;8.632;2023-07-08T04:25:43;5.75;;;2.17;;
23230;SDS011;11784;49.818;8.632;2023-07-08T04:28:08;7.30;;;2.15;;
23230;SDS011;11784;49.818;8.632;2023-07-08T04:30:34;5.07;;;2.10;;
23230;SDS011;11784;49.818;8.632;2023-07-08T04:33:05;4.30;;;2.15;;
23230;SDS011;11784;49.818;8.632;2023-07-08T04:35:35;4.22;;;2.17;;
23230;SDS011;11784;49.818;8.632;2023-07-08T04:38:03;4.97;;;2.03;;
23230;SDS011;11784;49.818;8.632;2023-07-08T04:40:34;3.92;;;2.00;;
23230;SDS011;11784;49.818;8.632;2023-07-08T04:43:05;5.15;;;2.13;;
23230;SDS011;11784;49.818;8.632;2023-07-08T04:45:31;5.47;;;2.28;;
23230;SDS011;11784;49.818;8.632;2023-07-08T04:47:57;4.95;;;2.00;;
23230;SDS011;11784;49.818;8.632;2023-07-08T04:50:23;6.63;;;2.25;;
23230;SDS011;11784;49.818;8.632;2023-07-08T04:52:48;5.38;;;2.40;;
23230;SDS011;11784;49.818;8.632;2023-07-08T04:55:14;5.68;;;1.83;;
23230;SDS011;11784;49.818;8.632;2023-07-08T04:57:40;5.05;;;2.35;;
23230;SDS011;11784;49.818;8.632;2023-07-08T05:00:07;3.75;;;1.90;;
23230;SDS011;11784;49.818;8.632;2023-07-08T05:02:37;9.65;;;2.75;;
23230;SDS011;11784;49.818;8.632;2023-07-08T05:05:03;5.60;;;2.20;;
23230;SDS011;11784;49.818;8.632;2023-07-08T05:07:29;5.47;;;2.45;;
23230;SDS011;11784;49.818;8.632;2023-07-08T05:09:54;3.58;;;1.80;;
23230;SDS011;11784;49.818;8.632;2023-07-08T05:12:20;8.43;;;2.00;;
23230;SDS011;11784;49.818;8.632;2023-07-08T05:14:45;6.55;;;2.42;;
23230;SDS011;11784;49.818;8.632;2023-07-08T05:17:11;5.47;;;2.25;;
23230;SDS011;11784;49.818;8.632;2023-07-08T05:19:37;5.22;;;1.77;;
23230;SDS011;11784;49.818;8.632;2023-07-08T05:22:02;5.28;;;2.03;;
23230;SDS011;11784;49.818;8.632;2023-07-08T05:24:28;6.00;;;2.35;;
23230;SDS011;11784;49.818;8.632;2023-07-08T05:26:54;4.00;;;1.73;;
23230;SDS011;11784;49.818;8.632;2023-07-08T05:29:19;5.30;;;2.22;;
23230;SDS011;11784;49.818;8.632;2023-07-08T05:31:45;5.75;;;1.75;;
23230;SDS011;11784;49.818;8.632;2023-07-08T05:34:10;6.95;;;1.98;;
23230;SDS011;11784;49.818;8.632;2023-07-08T05:36:35;4.60;;;2.17;;
23230;SDS011;11784;49.818;8.632;2023-07-08T05:39:01;3.65;;;2.03;;
23230;SDS011;11784;49.818;8.632;2023-07-08T05:41:26;5.78;;;2.20;;
23230;SDS011;11784;49.818;8.632;2023-07-08T05:43:52;6.47;;;2.28;;
23230;SDS011;11784;49.818;8.632;2023-07-08T05:46:17;5.90;;;2.00;;
23230;SDS011;11784;49.818;8.632;2023-07-08T05:48:43;4.00;;;1.77;;
23230;SDS011;11784;49.818;8.632;2023-07-08T05:51:08;4.05;;;2.10;;
23230;SDS011;11784;49.818;8.632;2023-07-08T05:53:34;5.13;;;2.40;;
23230;SDS011;11784;49.818;8.632;2023-07-08T05:55:59;5.63;;;2.20;;
23230;SDS011;11784;49.818;8.632;2023-07-08T05:58:26;4.90;;;2.42;;
23230;SDS011;11784;49.818;8.632;2023-07-08T06:00:55;8.88;;;2.72;;
23230;SDS011;11784;49.818;8.632;2023-07-08T06:03:22;4.63;;;2.33;;
23230;SDS011;11784;49.818;8.632;2023-07-08T06:05:47;5.25;;;2.38;;
23230;SDS011;11784;49.818;8.632;2023-07-08T06:08:14;9.27;;;2.70;;
23230;SDS011;11784;49.818;8.632;2023-07-08T06:10:43;5.30;;;2.33;;
23230;SDS011;11784;49.818;8.632;2023-07-08T06:13:10;5.60;;;2.47;;
23230;SDS011;11784;49.818;8.632;2023-07-08T06:15:36;8.88;;;2.22;;
23230;SDS011;11784;49.818;8.632;2023-07-08T06:18:02;6.43;;;2.25;;
23230;SDS011;11784;49.818;8.632;2023-07-08T06:20:28;8.27;;;2.75;;
23230;SDS011;11784;49.818;8.632;2023-07-08T06:22:54;6.82;;;2.30;;
23230;SDS011;11784;49.818;8.632;2023-07-08T06:25:20;6.00;;;2.50;;
23230;SDS011;11784;49.818;8.632;2023-07-08T06:27:46;6.10;;;2.17;;
23230;SDS011;11784;49.818;8.632;2023-07-08T06:30:12;4.70;;;2.30;;
23230;SDS011;11784;49.818;8.632;2023-07-08T06:32:37;7.95;;;2.58;;
23230;SDS011;11784;49.818;8.632;2023-07-08T06:35:03;7.78;;;2.38;;
23230;SDS011;11784;49.818;8.632;2023-07-08T06:37:29;9.27;;;2.50;;
23230;SDS011;11784;49.818;8.632;2023-07-08T06:39:54;4.80;;;2.47;;
23230;SDS011;11784;49.818;8.632;2023-07-08T06:42:20;6.13;;;2.38;;
23230;SDS011;11784;49.818;8.632;2023-07-08T06:44:45;5.82;;;2.05;;
23230;SDS011;11784;49.818;8.632;2023-07-08T06:47:18;6.43;;;2.28;;
23230;SDS011;11784;49.818;8.632;2023-07-08T06:49:45;4.18;;;2.15;;
23230;SDS011;11784;49.818;8.632;2023-07-08T06:52:11;7.90;;;2.03;;
23230;SDS011;11784;49.818;8.632;2023-07-08T06:54:37;7.22;;;2.30;;
23230;SDS011;11784;49.818;8.632;2023-07-08T06:57:03;7.47;;;2.65;;
23230;SDS011;11784;49.818;8.632;2023-07-08T06:59:30;5.93;;;2.33;;
23230;SDS011;11784;49.818;8.632;2023-07-08T07:01:55;5.47;;;2.35;;
23230;SDS011;11784;49.818;8.632;2023-07-08T07:04:21;4.15;;;2.08;;
23230;SDS011;11784;49.818;8.632;2023-07-08T07:06:46;4.65;;;2.35;;
23230;SDS011;11784;49.818;8.632;2023-07-08T07:09:12;4.88;;;2.70;;
23230;SDS011;11784;49.818;8.632;2023-07-08T07:11:40;4.22;;;2.38;;
23230;SDS011;11784;49.818;8.632;2023-07-08T07:14:06;5.00;;;2.38;;
23230;SDS011;11784;49.818;8.632;2023-07-08T07:16:31;8.63;;;2.90;;
23230;SDS011;11784;49.818;8.632;2023-07-08T07:18:57;4.90;;;2.60;;
23230;SDS011;11784;49.818;8.632;2023-07-08T07:21:23;6.22;;;2.80;;
23230;SDS011;11784;49.818;8.632;2023-07-08T07:23:48;6.70;;;2.45;;
23230;SDS011;11784;49.818;8.632;2023-07-08T07:26:14;5.00;;;2.33;;
23230;SDS011;11784;49.818;8.632;2023-07-08T07:28:40;6.90;;;2.55;;
23230;SDS011;11784;49.818;8.632;2023-07-08T07:31:05;4.78;;;2.60;;
23230;SDS011;11784;49.818;8.632;2023-07-08T07:33:32;5.03;;;2.20;;
23230;SDS011;11784;49.818;8.632;2023-07-08T07:35:57;5.13;;;2.72;;
23230;SDS011;11784;49.818;8.632;2023-07-08T07:38:23;9.27;;;2.47;;
23230;SDS011;11784;49.818;8.632;2023-07-08T07:40:53;4.37;;;2.33;;
23230;SDS011;11784;49.818;8.632;2023-07-08T07:43:20;6.32;;;2.78;;
23230;SDS011;11784;49.818;8.632;2023-07-08T07:45:53;6.15;;;2.50;;
23230;SDS011;11784;49.818;8.632;2023-07-08T07:48:19;9.20;;;3.03;;
23230;SDS011;11784;49.818;8.632;2023-07-08T07:50:46;6.57;;;2.67;;
23230;SDS011;11784;49.818;8.632;2023-07-08T07:53:12;4.43;;;2.33;;
23230;SDS011;11784;49.818;8.632;2023-07-08T07:55:37;4.57;;;2.08;;
23230;SDS011;11784;49.818;8.632;2023-07-08T07:58:03;4.57;;;1.90;;
23230;SDS011;11784;49.818;8.632;2023-07-08T08:00:30;5.63;;;2.30;;
23230;SDS011;11784;49.818;8.632;2023-07-08T08:02:55;5.80;;;2.67;;
23230;SDS011;11784;49.818;8.632;2023-07-08T08:05:21;6.32;;;2.20;;
23230;SDS011;11784;49.818;8.632;2023-07-08T08:07:47;4.25;;;2.15;;
23230;SDS011;11784;49.818;8.632;2023-07-08T08:10:13;5.97;;;2.28;;
23230;SDS011;11784;49.818;8.632;2023-07-08T08:12:39;6.03;;;2.80;;
23230;SDS011;11784;49.818;8.632;2023-07-08T08:15:04;5.97;;;2.10;;
23230;SDS011;11784;49.818;8.632;2023-07-08T08:17:33;5.68;;;2.60;;
23230;SDS011;11784;49.818;8.632;2023-07-08T08:19:59;4.45;;;1.73;;
23230;SDS011;11784;49.818;8.632;2023-07-08T08:22:25;4.88;;;2.20;;
23230;SDS011;11784;49.818;8.632;2023-07-08T08:24:50;4.78;;;2.38;;
23230;SDS011;11784;49.818;8.632;2023-07-08T08:27:18;4.15;;;2.05;;
23230;SDS011;11784;49.818;8.632;2023-07-08T08:29:44;5.40;;;2.65;;
23230;SDS011;11784;49.818;8.632;2023-07-08T08:32:10;6.07;;;2.28;;
23230;SDS011;11784;49.818;8.632;2023-07-08T08:34:35;5.18;;;2.65;;
23230;SDS011;11784;49.818;8.632;2023-07-08T08:37:01;4.38;;;2.05;;
23230;SDS011;11784;49.818;8.632;2023-07-08T08:39:26;6.93;;;2.92;;
23230;SDS011;11784;49.818;8.632;2023-07-08T08:41:54;6.18;;;2.55;;
23230;SDS011;11784;49.818;8.632;2023-07-08T08:44:25;6.93;;;2.75;;
23230;SDS011;11784;49.818;8.632;2023-07-08T08:49:56;6.78;;;2.88;;
23230;SDS011;11784;49.818;8.632;2023-07-08T08:52:26;5.50;;;2.45;;
23230;SDS011;11784;49.818;8.632;2023-07-08T08:54:54;5.05;;;2.20;;
23230;SDS011;11784;49.818;8.632;2023-07-08T08:57:31;6.95;;;2.85;;
23230;SDS011;11784;49.818;8.632;2023-07-08T09:00:02;5.63;;;2.22;;
23230;SDS011;11784;49.818;8.632;2023-07-08T09:04:58;12.30;;;2.30;;
23230;SDS011;11784;49.818;8.632;2023-07-08T09:07:29;5.75;;;2.08;;
23230;SDS011;11784;49.818;8.632;2023-07-08T09:10:43;5.55;;;2.30;;
23230;SDS011;11784;49.818;8.632;2023-07-08T09:13:05;4.13;;;2.00;;
23230;SDS011;11784;49.818;8.632;2023-07-08T09:15:34;3.88;;;1.80;;
23230;SDS011;11784;49.818;8.632;2023-07-08T09:20:50;2.78;;;1.73;;
23230;SDS011;11784;49.818;8.632;2023-07-08T09:23:22;4.15;;;1.75;;
23230;SDS011;11784;49.818;8.632;2023-07-08T09:28:40;4.80;;;1.95;;
23230;SDS011;11784;49.818;8.632;2023-07-08T09:31:31;5.65;;;2.13;;
23230;SDS011;11784;49.818;8.632;2023-07-08T09:34:09;5.43;;;1.98;;
23230;SDS011;11784;49.818;8.632;2023-07-08T09:36:44;4.95;;;2.20;;
23230;SDS011;11784;49.818;8.632;2023-07-08T09:39:12;2.75;;;1.50;;
23230;SDS011;11784;49.818;8.632;2023-07-08T09:41:40;5.10;;;1.77;;
23230;SDS011;11784;49.818;8.632;2023-07-08T09:44:13;4.32;;;1.80;;
23230;SDS011;11784;49.818;8.632;2023-07-08T09:46:44;2.58;;;1.48;;
23230;SDS011;11784;49.818;8.632;2023-07-08T09:49:17;4.07;;;1.90;;
23230;SDS011;11784;49.818;8.632;2023-07-08T09:51:45;4.15;;;1.70;;
23230;SDS011;11784;49.818;8.632;2023-07-08T09:54:11;4.93;;;1.75;;
23230;SDS011;11784;49.818;8.632;2023-07-08T09:56:45;2.95;;;1.60;;
23230;SDS011;11784;49.818;8.632;2023-07-08T09:59:19;4.20;;;1.73;;
23230;SDS011;11784;49.818;8.632;2023-07-08T10:04:17;3.80;;;1.80;;
23230;SDS011;11784;49.818;8.632;2023-07-08T10:06:44;5.25;;;2.10;;
23230;SDS011;11784;49.818;8.632;2023-07-08T10:09:13;4.22;;;2.00;;
23230;SDS011;11784;49.818;8.632;2023-07-08T10:11:46;3.22;;;1.35;;
23230;SDS011;11784;49.818;8.632;2023-07-08T10:17:07;3.22;;;1.83;;
23230;SDS011;11784;49.818;8.632;2023-07-08T10:19:38;6.18;;;1.83;;
23230;SDS011;11784;49.818;8.632;2023-07-08T10:22:08;4.05;;;1.60;;
23230;SDS011;11784;49.818;8.632;2023-07-08T10:24:51;3.10;;;1.23;;
23230;SDS011;11784;49.818;8.632;2023-07-08T10:30:03;4.30;;;1.70;;
23230;SDS011;11784;49.818;8.632;2023-07-08T10:38:06;5.85;;;1.83;;
23230;SDS011;11784;49.818;8.632;2023-07-08T10:41:00;6.35;;;1.38;;
23230;SDS011;11784;49.818;8.632;2023-07-08T10:46:14;2.95;;;1.75;;
23230;SDS011;11784;49.818;8.632;2023-07-08T11:02:45;3.45;;;1.73;;
23230;SDS011;11784;49.818;8.632;2023-07-08T11:05:38;2.88;;;1.42;;
23230;SDS011;11784;49.818;8.632;2023-07-08T11:08:21;3.10;;;1.58;;
23230;SDS011;11784;49.818;8.632;2023-07-08T11:13:20;3.00;;;1.60;;
23230;SDS011;11784;49.818;8.632;2023-07-08T11:18:23;2.17;;;1.08;;
23230;SDS011;11784;49.818;8.632;2023-07-08T11:21:14;3.45;;;1.60;;
23230;SDS011;11784;49.818;8.632;2023-07-08T11:23:46;3.00;;;1.38;;
23230;SDS011;11784;49.818;8.632;2023-07-08T11:28:54;4.03;;;2.25;;
23230;SDS011;11784;49.818;8.632;2023-07-08T11:31:23;5.30;;;1.65;;
23230;SDS011;11784;49.818;8.632;2023-07-08T11:33:50;2.28;;;0.90;;
23230;SDS011;11784;49.818;8.632;2023-07-08T11:36:17;3.00;;;1.00;;
23230;SDS011;11784;49.818;8.632;2023-07-08T11:38:47;3.53;;;1.30;;
23230;SDS011;11784;49.818;8.632;2023-07-08T11:41:15;4.40;;;1.70;;
23230;SDS011;11784;49.818;8.632;2023-07-08T11:43:47;2.90;;;1.40;;
23230;SDS011;11784;49.818;8.632;2023-07-08T11:46:21;4.03;;;1.70;;
23230;SDS011;11784;49.818;8.632;2023-07-08T11:48:53;4.22;;;1.80;;
23230;SDS011;11784;49.818;8.632;2023-07-08T11:51:27;5.53;;;1.50;;
23230;SDS011;11784;49.818;8.632;2023-07-08T11:54:19;4.15;;;1.33;;
23230;SDS011;11784;49.818;8.632;2023-07-08T11:56:49;2.65;;;1.15;;
23230;SDS011;11784;49.818;8.632;2023-07-08T11:59:17;4.15;;;1.63;;
23230;SDS011;11784;49.818;8.632;2023-07-08T12:04:23;3.63;;;1.65;;
23230;SDS011;11784;49.818;8.632;2023-07-08T12:06:54;4.32;;;1.80;;
23230;SDS011;11784;49.818;8.632;2023-07-08T12:10:08;2.92;;;1.52;;
23230;SDS011;11784;49.818;8.632;2023-07-08T12:12:41;4.72;;;1.65;;
23230;SDS011;11784;49.818;8.632;2023-07-08T12:15:22;5.25;;;1.65;;
23230;SDS011;11784;49.818;8.632;2023-07-08T12:17:54;5.40;;;1.58;;
23230;SDS011;11784;49.818;8.632;2023-07-08T12:20:24;2.70;;;1.38;;
23230;SDS011;11784;49.818;8.632;2023-07-08T12:22:53;3.63;;;1.77;;
23230;SDS011;11784;49.818;8.632;2023-07-08T12:25:20;4.50;;;1.38;;
23230;SDS011;11784;49.818;8.632;2023-07-08T12:27:48;2.88;;;1.35;;
23230;SDS011;11784;49.818;8.632;2023-07-08T12:30:14;2.90;;;1.48;;
23230;SDS011;11784;49.818;8.632;2023-07-08T12:32:40;3.47;;;1.38;;
23230;SDS011;11784;49.818;8.632;2023-07-08T12:35:14;4.55;;;1.55;;
23230;SDS011;11784;49.818;8.632;2023-07-08T12:37:47;3.55;;;1.23;;
23230;SDS011;11784;49.818;8.632;2023-07-08T12:40:13;3.50;;;1.67;;
23230;SDS011;11784;49.818;8.632;2023-07-08T12:42:39;3.00;;;1.30;;
23230;SDS011;11784;49.818;8.632;2023-07-08T12:45:26;3.15;;;1.55;;
23230;SDS011;11784;49.818;8.632;2023-07-08T12:47:52;3.72;;;1.75;;
23230;SDS011;11784;49.818;8.632;2023-07-08T12:50:17;2.42;;;1.15;;
23230;SDS011;11784;49.818;8.632;2023-07-08T12:52:44;2.90;;;1.50;;
23230;SDS011;11784;49.818;8.632;2023-07-08T12:55:11;4.00;;;1.75;;
23230;SDS011;11784;49.818;8.632;2023-07-08T12:57:37;2.38;;;1.27;;
23230;SDS011;11784;49.818;8.632;2023-07-08T13:00:10;4.25;;;1.30;;
23230;SDS011;11784;49.818;8.632;2023-07-08T13:02:43;4.78;;;1.50;;
23230;SDS011;11784;49.818;8.632;2023-07-08T13:05:10;3.55;;;1.45;;
23230;SDS011;11784;49.818;8.632;2023-07-08T13:07:38;5.63;;;1.58;;
23230;SDS011;11784;49.818;8.632;2023-07-08T13:10:06;5.63;;;1.50;;
23230;SDS011;11784;49.818;8.632;2023-07-08T13:12:40;2.78;;;1.25;;
23230;SDS011;11784;49.818;8.632;2023-07-08T13:15:09;2.20;;;1.02;;
23230;SDS011;11784;49.818;8.632;2023-07-08T13:17:42;3.00;;;1.63;;
23230;SDS011;11784;49.818;8.632;2023-07-08T13:20:12;3.45;;;0.98;;
23230;SDS011;11784;49.818;8.632;2023-07-08T13:22:40;5.20;;;2.17;;
23230;SDS011;11784;49.818;8.632;2023-07-08T13:25:12;2.55;;;1.02;;
23230;SDS011;11784;49.818;8.632;2023-07-08T13:27:42;3.10;;;1.45;;
23230;SDS011;11784;49.818;8.632;2023-07-08T13:30:20;2.80;;;1.10;;
23230;SDS011;11784;49.818;8.632;2023-07-08T13:32:48;2.78;;;1.30;;
23230;SDS011;11784;49.818;8.632;2023-07-08T13:35:21;3.95;;;1.40;;
23230;SDS011;11784;49.818;8.632;2023-07-08T13:37:52;2.50;;;1.10;;
23230;SDS011;11784;49.818;8.632;2023-07-08T13:40:18;3.75;;;1.38;;
23230;SDS011;11784;49.818;8.632;2023-07-08T13:42:48;2.92;;;1.30;;
23230;SDS011;11784;49.818;8.632;2023-07-08T13:45:15;4.88;;;1.60;;
23230;SDS011;11784;49.818;8.632;2023-07-08T13:47:56;4.10;;;1.65;;
23230;SDS011;11784;49.818;8.632;2023-07-08T13:50:27;7.80;;;1.55;;
23230;SDS011;11784;49.818;8.632;2023-07-08T13:52:57;3.65;;;1.48;;
23230;SDS011;11784;49.818;8.632;2023-07-08T13:55:23;4.25;;;1.60;;
23230;SDS011;11784;49.818;8.632;2023-07-08T13:58:00;4.28;;;1.42;;
23230;SDS011;11784;49.818;8.632;2023-07-08T14:00:28;4.13;;;1.60;;
23230;SDS011;11784;49.818;8.632;2023-07-08T14:02:55;2.53;;;1.20;;
23230;SDS011;11784;49.818;8.632;2023-07-08T14:05:20;5.32;;;1.30;;
23230;SDS011;11784;49.818;8.632;2023-07-08T14:07:46;2.63;;;1.52;;
23230;SDS011;11784;49.818;8.632;2023-07-08T14:10:13;5.43;;;1.60;;
23230;SDS011;11784;49.818;8.632;2023-07-08T14:12:39;2.08;;;1.10;;
23230;SDS011;11784;49.818;8.632;2023-07-08T14:15:05;2.95;;;1.17;;
23230;SDS011;11784;49.818;8.632;2023-07-08T14:17:31;3.55;;;1.42;;
23230;SDS011;11784;49.818;8.632;2023-07-08T14:19:57;2.35;;;1.13;;
23230;SDS011;11784;49.818;8.632;2023-07-08T14:22:24;2.55;;;1.42;;
23230;SDS011;11784;49.818;8.632;2023-07-08T14:24:54;2.22;;;1.20;;
23230;SDS011;11784;49.818;8.632;2023-07-08T14:27:20;3.55;;;1.33;;
23230;SDS011;11784;49.818;8.632;2023-07-08T14:29:48;8.60;;;1.40;;
23230;SDS011;11784;49.818;8.632;2023-07-08T14:32:16;4.78;;;1.60;;
23230;SDS011;11784;49.818;8.632;2023-07-08T14:34:50;2.95;;;1.30;;
23230;SDS011;11784;49.818;8.632;2023-07-08T14:37:18;4.15;;;1.10;;
23230;SDS011;11784;49.818;8.632;2023-07-08T14:39:44;2.22;;;1.40;;
23230;SDS011;11784;49.818;8.632;2023-07-08T14:42:11;6.30;;;2.33;;
23230;SDS011;11784;49.818;8.632;2023-07-08T14:44:38;3.45;;;1.42;;
23230;SDS011;11784;49.818;8.632;2023-07-08T14:47:12;6.95;;;1.58;;
23230;SDS011;11784;49.818;8.632;2023-07-08T14:49:39;3.55;;;1.55;;
23230;SDS011;11784;49.818;8.632;2023-07-08T14:52:05;6.85;;;1.42;;
23230;SDS011;11784;49.818;8.632;2023-07-08T14:54:31;5.22;;;1.38;;
23230;SDS011;11784;49.818;8.632;2023-07-08T14:56:57;3.28;;;1.40;;
23230;SDS011;11784;49.818;8.632;2023-07-08T14:59:25;6.25;;;1.63;;
23230;SDS011;11784;49.818;8.632;2023-07-08T15:01:54;2.35;;;1.23;;
23230;SDS011;11784;49.818;8.632;2023-07-08T15:04:21;3.55;;;1.40;;
23230;SDS011;11784;49.818;8.632;2023-07-08T15:06:46;4.15;;;1.63;;
23230;SDS011;11784;49.818;8.632;2023-07-08T15:09:12;3.10;;;1.45;;
23230;SDS011;11784;49.818;8.632;2023-07-08T15:11:42;5.20;;;1.40;;
23230;SDS011;11784;49.818;8.632;2023-07-08T15:14:09;6.45;;;1.67;;
23230;SDS011;11784;49.818;8.632;2023-07-08T15:16:39;6.63;;;1.60;;
23230;SDS011;11784;49.818;8.632;2023-07-08T15:19:09;3.10;;;1.60;;
23230;SDS011;11784;49.818;8.632;2023-07-08T15:21:36;2.75;;;1.50;;
23230;SDS011;11784;49.818;8.632;2023-07-08T15:24:02;4.60;;;1.52;;
23230;SDS011;11784;49.818;8.632;2023-07-08T15:26:28;5.57;;;1.70;;
23230;SDS011;11784;49.818;8.632;2023-07-08T15:28:54;5.30;;;1.50;;
23230;SDS011;11784;49.818;8.632;2023-07-08T15:31:23;7.03;;;1.42;;
23230;SDS011;11784;49.818;8.632;2023-07-08T15:33:51;4.03;;;1.80;;
23230;SDS011;11784;49.818;8.632;2023-07-08T15:36:17;4.20;;;1.55;;
23230;SDS011;11784;49.818;8.632;2023-07-08T15:38:43;3.15;;;1.52;;
23230;SDS011;11784;49.818;8.632;2023-07-08T15:41:16;3.25;;;1.48;;
23230;SDS011;11784;49.818;8.632;2023-07-08T15:43:45;3.05;;;1.67;;
23230;SDS011;11784;49.818;8.632;2023-07-08T15:46:12;4.78;;;1.65;;
23230;SDS011;11784;49.818;8.632;2023-07-08T15:48:38;6.25;;;2.08;;
23230;SDS011;11784;49.818;8.632;2023-07-08T15:51:03;2.42;;;1.10;;
23230;SDS011;11784;49.818;8.632;2023-07-08T15:53:29;6.22;;;1.38;;
23230;SDS011;11784;49.818;8.632;2023-07-08T15:55:54;3.88;;;1.70;;